sensor_id;sensor_type;location;lat;lon;timestamp;temperature;humidity
55016;DHT22;40919;43.236;21.590;2023-02-02T00:01:44;179.20;2252.80
55016;DHT22;40919;43.236;21.590;2023-02-02T00:04:18;179.20;2252.80
55016;DHT22;40919;43.236;21.590;2023-02-02T00:06:45;179.20;2252.80
55016;DHT22;40919;43.236;21.590;2023-02-02T00:09:13;154.50;2252.80
55016;DHT22;40919;43.236;21.590;2023-02-02T00:11:41;179.20;2252.80
55016;DHT22;40919;43.236;21.590;2023-02-02T00:14:06;179.20;2252.80
55016;DHT22;40919;43.236;21.590;2023-02-02T00:16:58;179.20;2252.80
55016;DHT22;40919;43.236;21.590;2023-02-02T00:19:29;179.20;2252.80
55016;DHT22;40919;43.236;21.590;2023-02-02T00:21:56;179.20;2252.80
55016;DHT22;40919;43.236;21.590;2023-02-02T00:24:23;154.50;2252.80
55016;DHT22;40919;43.236;21.590;2023-02-02T00:26:52;154.50;2252.80
55016;DHT22;40919;43.236;21.590;2023-02-02T00:29:20;154.50;2252.80
55016;DHT22;40919;43.236;21.590;2023-02-02T00:31:47;154.50;2252.80
55016;DHT22;40919;43.236;21.590;2023-02-02T00:34:13;154.50;2252.80
55016;DHT22;40919;43.236;21.590;2023-02-02T00:36:40;154.50;2252.80
55016;DHT22;40919;43.236;21.590;2023-02-02T00:39:06;154.50;2252.80
55016;DHT22;40919;43.236;21.590;2023-02-02T00:41:32;179.20;2252.80
55016;DHT22;40919;43.236;21.590;2023-02-02T00:43:58;154.40;2252.80
55016;DHT22;40919;43.236;21.590;2023-02-02T00:46:43;154.40;2252.80
55016;DHT22;40919;43.236;21.590;2023-02-02T00:49:08;154.40;2252.80
55016;DHT22;40919;43.236;21.590;2023-02-02T00:51:35;154.30;2252.80
55016;DHT22;40919;43.236;21.590;2023-02-02T00:54:02;154.10;2252.80
55016;DHT22;40919;43.236;21.590;2023-02-02T00:56:28;154.30;2252.80
55016;DHT22;40919;43.236;21.590;2023-02-02T00:58:53;154.30;2252.80
55016;DHT22;40919;43.236;21.590;2023-02-02T01:01:20;154.30;2252.80
55016;DHT22;40919;43.236;21.590;2023-02-02T01:03:47;154.30;2252.80
55016;DHT22;40919;43.236;21.590;2023-02-02T01:06:13;154.30;2252.80
55016;DHT22;40919;43.236;21.590;2023-02-02T01:08:39;154.30;2252.80
55016;DHT22;40919;43.236;21.590;2023-02-02T01:11:05;154.30;2252.80
55016;DHT22;40919;43.236;21.590;2023-02-02T01:13:31;154.30;2252.80
55016;DHT22;40919;43.236;21.590;2023-02-02T01:15:59;154.30;2252.80
55016;DHT22;40919;43.236;21.590;2023-02-02T01:18:25;154.30;2252.80
55016;DHT22;40919;43.236;21.590;2023-02-02T01:21:05;154.30;2252.80
55016;DHT22;40919;43.236;21.590;2023-02-02T01:23:33;154.40;2252.80
55016;DHT22;40919;43.236;21.590;2023-02-02T01:26:00;154.30;2252.80
55016;DHT22;40919;43.236;21.590;2023-02-02T01:28:27;154.40;2252.80
55016;DHT22;40919;43.236;21.590;2023-02-02T01:30:53;154.20;2252.80
55016;DHT22;40919;43.236;21.590;2023-02-02T01:33:20;154.40;2252.80
55016;DHT22;40919;43.236;21.590;2023-02-02T01:35:51;154.20;2252.80
55016;DHT22;40919;43.236;21.590;2023-02-02T01:38:17;154.30;2252.80
55016;DHT22;40919;43.236;21.590;2023-02-02T01:40:48;154.30;2252.80
55016;DHT22;40919;43.236;21.590;2023-02-02T01:46:12;154.20;2252.80
55016;DHT22;40919;43.236;21.590;2023-02-02T01:48:51;154.10;2252.80
55016;DHT22;40919;43.236;21.590;2023-02-02T01:51:21;154.10;2252.80
55016;DHT22;40919;43.236;21.590;2023-02-02T01:53:49;154.20;2252.80
55016;DHT22;40919;43.236;21.590;2023-02-02T01:56:25;154.20;2252.80
55016;DHT22;40919;43.236;21.590;2023-02-02T01:58:53;154.20;2252.80
55016;DHT22;40919;43.236;21.590;2023-02-02T02:01:19;154.20;2252.80
55016;DHT22;40919;43.236;21.590;2023-02-02T02:03:45;154.20;2252.80
55016;DHT22;40919;43.236;21.590;2023-02-02T02:06:14;154.30;2252.80
55016;DHT22;40919;43.236;21.590;2023-02-02T02:08:47;154.20;2252.80
55016;DHT22;40919;43.236;21.590;2023-02-02T02:11:17;154.10;2252.80
55016;DHT22;40919;43.236;21.590;2023-02-02T02:13:43;154.10;2252.80
55016;DHT22;40919;43.236;21.590;2023-02-02T02:16:45;154.10;2252.80
55016;DHT22;40919;43.236;21.590;2023-02-02T02:22:12;154.00;2252.80
55016;DHT22;40919;43.236;21.590;2023-02-02T02:28:08;153.70;2252.80
55016;DHT22;40919;43.236;21.590;2023-02-02T02:33:34;128.80;2252.80
55016;DHT22;40919;43.236;21.590;2023-02-02T02:36:02;128.70;2252.80
55016;DHT22;40919;43.236;21.590;2023-02-02T02:38:40;128.50;2252.80
55016;DHT22;40919;43.236;21.590;2023-02-02T02:41:11;128.20;2252.80
55016;DHT22;40919;43.236;21.590;2023-02-02T02:43:41;128.10;2252.80
55016;DHT22;40919;43.236;21.590;2023-02-02T02:46:09;128.20;2252.80
55016;DHT22;40919;43.236;21.590;2023-02-02T02:48:35;128.10;2252.80
55016;DHT22;40919;43.236;21.590;2023-02-02T02:54:20;128.00;2252.80
55016;DHT22;40919;43.236;21.590;2023-02-02T02:56:51;103.30;2227.20
55016;DHT22;40919;43.236;21.590;2023-02-02T02:59:36;103.30;2227.20
55016;DHT22;40919;43.236;21.590;2023-02-02T03:07:34;103.00;2227.20
55016;DHT22;40919;43.236;21.590;2023-02-02T03:10:03;102.80;2227.20
55016;DHT22;40919;43.236;21.590;2023-02-02T03:12:29;102.80;2227.20
55016;DHT22;40919;43.236;21.590;2023-02-02T03:14:55;102.50;2227.20
55016;DHT22;40919;43.236;21.590;2023-02-02T03:17:21;77.70;2227.20
55016;DHT22;40919;43.236;21.590;2023-02-02T03:19:47;77.70;2227.20
55016;DHT22;40919;43.236;21.590;2023-02-02T03:22:13;102.40;2227.20
55016;DHT22;40919;43.236;21.590;2023-02-02T03:24:38;77.70;2227.20
55016;DHT22;40919;43.236;21.590;2023-02-02T03:27:04;77.70;2227.20
55016;DHT22;40919;43.236;21.590;2023-02-02T03:29:30;102.40;2227.20
55016;DHT22;40919;43.236;21.590;2023-02-02T03:31:56;102.50;2227.20
55016;DHT22;40919;43.236;21.590;2023-02-02T03:34:21;102.50;2227.20
55016;DHT22;40919;43.236;21.590;2023-02-02T03:36:47;102.60;2227.20
55016;DHT22;40919;43.236;21.590;2023-02-02T03:39:13;102.60;2227.20
55016;DHT22;40919;43.236;21.590;2023-02-02T03:41:38;102.60;2227.20
55016;DHT22;40919;43.236;21.590;2023-02-02T03:44:04;102.60;2227.20
55016;DHT22;40919;43.236;21.590;2023-02-02T03:46:30;102.50;2227.20
55016;DHT22;40919;43.236;21.590;2023-02-02T03:48:55;77.70;2227.20
55016;DHT22;40919;43.236;21.590;2023-02-02T03:51:21;77.50;2227.20
55016;DHT22;40919;43.236;21.590;2023-02-02T03:53:47;77.60;2227.20
55016;DHT22;40919;43.236;21.590;2023-02-02T03:56:13;77.70;2227.20
55016;DHT22;40919;43.236;21.590;2023-02-02T03:58:39;102.40;2227.20
55016;DHT22;40919;43.236;21.590;2023-02-02T04:01:08;102.40;2227.20
55016;DHT22;40919;43.236;21.590;2023-02-02T04:03:34;102.40;2227.20
55016;DHT22;40919;43.236;21.590;2023-02-02T04:06:00;102.40;2227.20
55016;DHT22;40919;43.236;21.590;2023-02-02T04:08:26;102.40;2227.20
55016;DHT22;40919;43.236;21.590;2023-02-02T04:10:53;102.40;2227.20
55016;DHT22;40919;43.236;21.590;2023-02-02T04:13:19;77.70;2227.20
55016;DHT22;40919;43.236;21.590;2023-02-02T04:15:44;77.70;2227.20
55016;DHT22;40919;43.236;21.590;2023-02-02T04:18:10;77.70;2227.20
55016;DHT22;40919;43.236;21.590;2023-02-02T04:20:36;77.60;2227.20
55016;DHT22;40919;43.236;21.590;2023-02-02T04:23:01;77.50;2227.20
55016;DHT22;40919;43.236;21.590;2023-02-02T04:25:27;77.50;2227.20
55016;DHT22;40919;43.236;21.590;2023-02-02T04:27:53;77.60;2227.20
55016;DHT22;40919;43.236;21.590;2023-02-02T04:30:19;77.60;2227.20
55016;DHT22;40919;43.236;21.590;2023-02-02T04:32:45;77.70;2227.20
55016;DHT22;40919;43.236;21.590;2023-02-02T04:35:11;77.70;2227.20
55016;DHT22;40919;43.236;21.590;2023-02-02T04:37:36;77.70;2227.20
55016;DHT22;40919;43.236;21.590;2023-02-02T04:40:02;102.40;2227.20
55016;DHT22;40919;43.236;21.590;2023-02-02T04:42:28;77.40;2227.20
55016;DHT22;40919;43.236;21.590;2023-02-02T04:44:56;102.50;2227.20
55016;DHT22;40919;43.236;21.590;2023-02-02T04:47:22;102.50;2227.20
55016;DHT22;40919;43.236;21.590;2023-02-02T04:49:48;77.60;2227.20
55016;DHT22;40919;43.236;21.590;2023-02-02T04:52:13;77.60;2227.20
55016;DHT22;40919;43.236;21.590;2023-02-02T04:54:39;77.70;2227.20
55016;DHT22;40919;43.236;21.590;2023-02-02T04:57:05;77.70;2227.20
55016;DHT22;40919;43.236;21.590;2023-02-02T04:59:30;77.60;2227.20
55016;DHT22;40919;43.236;21.590;2023-02-02T05:02:00;77.70;2227.20
55016;DHT22;40919;43.236;21.590;2023-02-02T05:04:26;102.50;2227.20
55016;DHT22;40919;43.236;21.590;2023-02-02T05:06:52;102.60;2227.20
55016;DHT22;40919;43.236;21.590;2023-02-02T05:09:18;102.60;2227.20
55016;DHT22;40919;43.236;21.590;2023-02-02T05:11:44;102.60;2227.20
55016;DHT22;40919;43.236;21.590;2023-02-02T05:14:10;102.70;2227.20
55016;DHT22;40919;43.236;21.590;2023-02-02T05:16:36;102.50;2227.20
55016;DHT22;40919;43.236;21.590;2023-02-02T05:19:04;102.50;2227.20
55016;DHT22;40919;43.236;21.590;2023-02-02T05:21:29;77.70;2227.20
55016;DHT22;40919;43.236;21.590;2023-02-02T05:23:56;77.60;2227.20
55016;DHT22;40919;43.236;21.590;2023-02-02T05:26:24;77.50;2227.20
55016;DHT22;40919;43.236;21.590;2023-02-02T05:28:51;77.50;2227.20
55016;DHT22;40919;43.236;21.590;2023-02-02T05:31:17;77.40;2227.20
55016;DHT22;40919;43.236;21.590;2023-02-02T05:33:43;77.60;2227.20
55016;DHT22;40919;43.236;21.590;2023-02-02T05:36:09;77.50;2227.20
55016;DHT22;40919;43.236;21.590;2023-02-02T05:38:35;77.70;2227.20
55016;DHT22;40919;43.236;21.590;2023-02-02T05:41:01;77.70;2227.20
55016;DHT22;40919;43.236;21.590;2023-02-02T05:43:28;77.60;2227.20
55016;DHT22;40919;43.236;21.590;2023-02-02T05:45:54;77.70;2227.20
55016;DHT22;40919;43.236;21.590;2023-02-02T05:48:20;77.60;2227.20
55016;DHT22;40919;43.236;21.590;2023-02-02T05:51:10;77.60;2227.20
55016;DHT22;40919;43.236;21.590;2023-02-02T05:53:37;77.60;2227.20
55016;DHT22;40919;43.236;21.590;2023-02-02T05:56:02;77.70;2227.20
55016;DHT22;40919;43.236;21.590;2023-02-02T05:58:28;77.70;2227.20
55016;DHT22;40919;43.236;21.590;2023-02-02T06:00:54;102.40;2227.20
55016;DHT22;40919;43.236;21.590;2023-02-02T06:03:20;102.50;2227.20
55016;DHT22;40919;43.236;21.590;2023-02-02T06:05:45;102.50;2227.20
55016;DHT22;40919;43.236;21.590;2023-02-02T06:08:11;102.60;2227.20
55016;DHT22;40919;43.236;21.590;2023-02-02T06:10:40;102.60;2227.20
55016;DHT22;40919;43.236;21.590;2023-02-02T06:13:07;102.70;2227.20
55016;DHT22;40919;43.236;21.590;2023-02-02T06:15:34;77.60;2227.20
55016;DHT22;40919;43.236;21.590;2023-02-02T06:18:00;102.60;2227.20
55016;DHT22;40919;43.236;21.590;2023-02-02T06:20:26;102.60;2227.20
55016;DHT22;40919;43.236;21.590;2023-02-02T06:22:52;102.90;2227.20
55016;DHT22;40919;43.236;21.590;2023-02-02T06:25:18;102.60;2227.20
55016;DHT22;40919;43.236;21.590;2023-02-02T06:27:43;102.50;2227.20
55016;DHT22;40919;43.236;21.590;2023-02-02T06:30:14;102.40;2227.20
55016;DHT22;40919;43.236;21.590;2023-02-02T06:32:40;102.50;2227.20
55016;DHT22;40919;43.236;21.590;2023-02-02T06:35:06;102.40;2227.20
55016;DHT22;40919;43.236;21.590;2023-02-02T06:37:32;102.50;2227.20
55016;DHT22;40919;43.236;21.590;2023-02-02T06:39:59;77.60;2227.20
55016;DHT22;40919;43.236;21.590;2023-02-02T06:42:24;102.40;2227.20
55016;DHT22;40919;43.236;21.590;2023-02-02T06:44:50;77.70;2227.20
55016;DHT22;40919;43.236;21.590;2023-02-02T06:47:16;77.70;2227.20
55016;DHT22;40919;43.236;21.590;2023-02-02T06:49:42;77.60;2227.20
55016;DHT22;40919;43.236;21.590;2023-02-02T06:52:07;77.70;2227.20
55016;DHT22;40919;43.236;21.590;2023-02-02T06:54:33;77.60;2227.20
55016;DHT22;40919;43.236;21.590;2023-02-02T06:56:59;77.60;2227.20
55016;DHT22;40919;43.236;21.590;2023-02-02T06:59:25;77.70;2227.20
55016;DHT22;40919;43.236;21.590;2023-02-02T07:01:50;77.70;2227.20
55016;DHT22;40919;43.236;21.590;2023-02-02T07:04:17;77.70;2227.20
55016;DHT22;40919;43.236;21.590;2023-02-02T07:06:43;102.40;2227.20
55016;DHT22;40919;43.236;21.590;2023-02-02T07:09:08;102.40;2227.20
55016;DHT22;40919;43.236;21.590;2023-02-02T07:11:34;102.50;2227.20
55016;DHT22;40919;43.236;21.590;2023-02-02T07:14:01;102.40;2227.20
55016;DHT22;40919;43.236;21.590;2023-02-02T07:16:27;77.70;2227.20
55016;DHT22;40919;43.236;21.590;2023-02-02T07:18:53;102.40;2227.20
55016;DHT22;40919;43.236;21.590;2023-02-02T07:21:23;77.70;2227.20
55016;DHT22;40919;43.236;21.590;2023-02-02T07:23:49;77.70;2227.20
55016;DHT22;40919;43.236;21.590;2023-02-02T07:26:16;102.70;2227.20
55016;DHT22;40919;43.236;21.590;2023-02-02T07:28:43;102.50;2227.20
55016;DHT22;40919;43.236;21.590;2023-02-02T07:31:20;102.40;2227.20
55016;DHT22;40919;43.236;21.590;2023-02-02T07:33:46;102.60;2227.20
55016;DHT22;40919;43.236;21.590;2023-02-02T07:36:14;102.70;2227.20
55016;DHT22;40919;43.236;21.590;2023-02-02T07:38:41;102.70;2227.20
55016;DHT22;40919;43.236;21.590;2023-02-02T07:41:07;102.70;2227.20
55016;DHT22;40919;43.236;21.590;2023-02-02T07:43:32;102.80;2227.20
55016;DHT22;40919;43.236;21.590;2023-02-02T07:46:03;103.00;2227.20
55016;DHT22;40919;43.236;21.590;2023-02-02T07:48:31;102.90;2227.20
55016;DHT22;40919;43.236;21.590;2023-02-02T07:51:04;102.90;2227.20
55016;DHT22;40919;43.236;21.590;2023-02-02T07:53:31;103.00;2227.20
55016;DHT22;40919;43.236;21.590;2023-02-02T07:56:12;103.10;2227.20
55016;DHT22;40919;43.236;21.590;2023-02-02T07:58:38;103.10;2227.20
55016;DHT22;40919;43.236;21.590;2023-02-02T08:01:05;103.20;2227.20
55016;DHT22;40919;43.236;21.590;2023-02-02T08:03:32;103.20;2227.20
55016;DHT22;40919;43.236;21.590;2023-02-02T08:05:58;103.30;2227.20
55016;DHT22;40919;43.236;21.590;2023-02-02T08:08:24;103.30;2227.20
55016;DHT22;40919;43.236;21.590;2023-02-02T08:10:51;128.00;2252.80
55016;DHT22;40919;43.236;21.590;2023-02-02T08:13:17;128.10;2252.80
55016;DHT22;40919;43.236;21.590;2023-02-02T08:15:43;128.20;2252.80
55016;DHT22;40919;43.236;21.590;2023-02-02T08:18:09;128.30;2252.80
55016;DHT22;40919;43.236;21.590;2023-02-02T08:20:35;128.40;2252.80
55016;DHT22;40919;43.236;21.590;2023-02-02T08:23:01;128.40;2252.80
55016;DHT22;40919;43.236;21.590;2023-02-02T08:25:27;128.50;2252.80
55016;DHT22;40919;43.236;21.590;2023-02-02T08:27:53;128.50;2252.80
55016;DHT22;40919;43.236;21.590;2023-02-02T08:30:19;128.60;2252.80
55016;DHT22;40919;43.236;21.590;2023-02-02T08:32:45;128.70;2252.80
55016;DHT22;40919;43.236;21.590;2023-02-02T08:35:11;128.70;2252.80
55016;DHT22;40919;43.236;21.590;2023-02-02T08:37:37;128.60;2252.80
55016;DHT22;40919;43.236;21.590;2023-02-02T08:40:03;128.60;2252.80
55016;DHT22;40919;43.236;21.590;2023-02-02T08:42:29;128.70;2252.80
55016;DHT22;40919;43.236;21.590;2023-02-02T08:44:55;128.70;2252.80
55016;DHT22;40919;43.236;21.590;2023-02-02T08:47:20;128.80;2252.80
55016;DHT22;40919;43.236;21.590;2023-02-02T08:49:46;128.80;2252.80
55016;DHT22;40919;43.236;21.590;2023-02-02T08:52:12;128.90;2252.80
55016;DHT22;40919;43.236;21.590;2023-02-02T08:54:37;153.60;2252.80
55016;DHT22;40919;43.236;21.590;2023-02-02T08:57:03;153.70;2252.80
55016;DHT22;40919;43.236;21.590;2023-02-02T08:59:29;153.70;2252.80
55016;DHT22;40919;43.236;21.590;2023-02-02T09:01:54;153.70;2252.80
55016;DHT22;40919;43.236;21.590;2023-02-02T09:04:21;153.80;2252.80
55016;DHT22;40919;43.236;21.590;2023-02-02T09:06:46;153.90;2252.80
55016;DHT22;40919;43.236;21.590;2023-02-02T09:09:14;154.00;2252.80
55016;DHT22;40919;43.236;21.590;2023-02-02T09:11:40;154.10;2252.80
55016;DHT22;40919;43.236;21.590;2023-02-02T09:14:07;154.20;2252.80
55016;DHT22;40919;43.236;21.590;2023-02-02T09:16:34;154.30;2252.80
55016;DHT22;40919;43.236;21.590;2023-02-02T09:19:00;179.20;2252.80
55016;DHT22;40919;43.236;21.590;2023-02-02T09:21:26;179.20;2252.80
55016;DHT22;40919;43.236;21.590;2023-02-02T09:23:53;179.30;2252.80
55016;DHT22;40919;43.236;21.590;2023-02-02T09:28:48;179.50;2252.80
55016;DHT22;40919;43.236;21.590;2023-02-02T09:31:15;179.60;2252.80
55016;DHT22;40919;43.236;21.590;2023-02-02T09:33:41;179.70;2252.80
55016;DHT22;40919;43.236;21.590;2023-02-02T09:38:38;179.90;2252.80
55016;DHT22;40919;43.236;21.590;2023-02-02T09:41:19;179.90;2252.80
55016;DHT22;40919;43.236;21.590;2023-02-02T09:49:05;204.90;2252.80
55016;DHT22;40919;43.236;21.590;2023-02-02T09:51:37;205.00;2252.80
55016;DHT22;40919;43.236;21.590;2023-02-02T09:54:19;205.10;2252.80
55016;DHT22;40919;43.236;21.590;2023-02-02T09:56:48;205.10;2252.80
55016;DHT22;40919;43.236;21.590;2023-02-02T09:59:23;205.10;2252.80
55016;DHT22;40919;43.236;21.590;2023-02-02T10:01:54;205.10;2252.80
55016;DHT22;40919;43.236;21.590;2023-02-02T10:04:35;205.10;2252.80
55016;DHT22;40919;43.236;21.590;2023-02-02T10:07:26;205.40;2252.80
55016;DHT22;40919;43.236;21.590;2023-02-02T10:09:58;205.40;2252.80
55016;DHT22;40919;43.236;21.590;2023-02-02T10:12:41;205.60;2252.80
55016;DHT22;40919;43.236;21.590;2023-02-02T10:15:41;205.70;2252.80
55016;DHT22;40919;43.236;21.590;2023-02-02T10:18:22;230.40;2252.80
55016;DHT22;40919;43.236;21.590;2023-02-02T10:20:58;230.50;2252.80
55016;DHT22;40919;43.236;21.590;2023-02-02T10:23:27;230.70;2252.80
55016;DHT22;40919;43.236;21.590;2023-02-02T10:25:57;230.80;2252.80
55016;DHT22;40919;43.236;21.590;2023-02-02T10:34:27;230.90;2252.80
55016;DHT22;40919;43.236;21.590;2023-02-02T10:40:01;231.00;2252.80
55016;DHT22;40919;43.236;21.590;2023-02-02T10:45:32;231.20;2252.80
55016;DHT22;40919;43.236;21.590;2023-02-02T10:47:58;256.00;2252.80
55016;DHT22;40919;43.236;21.590;2023-02-02T10:50:24;256.20;2252.80
55016;DHT22;40919;43.236;21.590;2023-02-02T10:52:59;256.50;2252.80
55016;DHT22;40919;43.236;21.590;2023-02-02T10:55:37;256.50;2252.80
55016;DHT22;40919;43.236;21.590;2023-02-02T11:00:50;256.80;2252.80
55016;DHT22;40919;43.236;21.590;2023-02-02T11:03:19;281.70;2278.40
55016;DHT22;40919;43.236;21.590;2023-02-02T11:05:46;281.90;2278.40
55016;DHT22;40919;43.236;21.590;2023-02-02T11:16:34;282.40;2278.40
55016;DHT22;40919;43.236;21.590;2023-02-02T11:19:00;282.30;2278.40
55016;DHT22;40919;43.236;21.590;2023-02-02T11:21:30;282.20;2278.40
55016;DHT22;40919;43.236;21.590;2023-02-02T11:23:59;282.10;2278.40
55016;DHT22;40919;43.236;21.590;2023-02-02T11:26:44;282.00;2278.40
55016;DHT22;40919;43.236;21.590;2023-02-02T11:29:25;282.00;2201.60
55016;DHT22;40919;43.236;21.590;2023-02-02T11:31:52;282.00;2252.80
55016;DHT22;40919;43.236;21.590;2023-02-02T11:34:26;281.90;2278.40
55016;DHT22;40919;43.236;21.590;2023-02-02T11:37:11;281.80;2227.20
55016;DHT22;40919;43.236;21.590;2023-02-02T11:39:42;281.90;2252.80
55016;DHT22;40919;43.236;21.590;2023-02-02T11:42:18;282.00;2227.20
55016;DHT22;40919;43.236;21.590;2023-02-02T11:44:56;281.90;2252.80
55016;DHT22;40919;43.236;21.590;2023-02-02T11:47:32;282.10;2201.60
55016;DHT22;40919;43.236;21.590;2023-02-02T11:50:00;282.10;2252.80
55016;DHT22;40919;43.236;21.590;2023-02-02T11:52:28;282.00;2227.20
55016;DHT22;40919;43.236;21.590;2023-02-02T11:54:57;281.90;2278.40
55016;DHT22;40919;43.236;21.590;2023-02-02T11:57:25;281.70;2278.40
55016;DHT22;40919;43.236;21.590;2023-02-02T12:00:16;256.80;2252.80
55016;DHT22;40919;43.236;21.590;2023-02-02T12:02:49;256.70;2252.80
55016;DHT22;40919;43.236;21.590;2023-02-02T12:07:48;256.80;2252.80
55016;DHT22;40919;43.236;21.590;2023-02-02T12:10:56;256.90;2252.80
55016;DHT22;40919;43.236;21.590;2023-02-02T12:17:14;282.30;2278.40
55016;DHT22;40919;43.236;21.590;2023-02-02T12:21:38;281.60;2278.40
55016;DHT22;40919;43.236;21.590;2023-02-02T12:24:21;256.70;2252.80
55016;DHT22;40919;43.236;21.590;2023-02-02T12:41:46;256.50;2252.80
55016;DHT22;40919;43.236;21.590;2023-02-02T13:00:52;231.30;2252.80
55016;DHT22;40919;43.236;21.590;2023-02-02T13:06:35;231.10;2252.80
55016;DHT22;40919;43.236;21.590;2023-02-02T13:09:13;230.90;2252.80
55016;DHT22;40919;43.236;21.590;2023-02-02T13:11:54;230.80;2252.80
55016;DHT22;40919;43.236;21.590;2023-02-02T13:14:55;230.70;2252.80
55016;DHT22;40919;43.236;21.590;2023-02-02T13:17:47;230.60;2252.80
55016;DHT22;40919;43.236;21.590;2023-02-02T13:20:19;230.60;2252.80
55016;DHT22;40919;43.236;21.590;2023-02-02T13:22:46;230.60;2252.80
55016;DHT22;40919;43.236;21.590;2023-02-02T13:25:28;230.70;2252.80
55016;DHT22;40919;43.236;21.590;2023-02-02T13:27:56;230.60;2252.80
55016;DHT22;40919;43.236;21.590;2023-02-02T13:32:55;230.50;2252.80
55016;DHT22;40919;43.236;21.590;2023-02-02T13:35:49;230.50;2252.80
55016;DHT22;40919;43.236;21.590;2023-02-02T13:40:48;230.40;2252.80
55016;DHT22;40919;43.236;21.590;2023-02-02T13:49:28;230.40;2252.80
55016;DHT22;40919;43.236;21.590;2023-02-02T13:54:54;230.40;2252.80
55016;DHT22;40919;43.236;21.590;2023-02-02T14:00:48;205.70;2252.80
55016;DHT22;40919;43.236;21.590;2023-02-02T14:03:40;205.70;2252.80
55016;DHT22;40919;43.236;21.590;2023-02-02T14:06:10;205.50;2252.80
55016;DHT22;40919;43.236;21.590;2023-02-02T14:08:43;205.40;2252.80
55016;DHT22;40919;43.236;21.590;2023-02-02T14:11:13;205.50;2252.80
55016;DHT22;40919;43.236;21.590;2023-02-02T14:13:52;205.40;2252.80
55016;DHT22;40919;43.236;21.590;2023-02-02T14:19:05;205.50;2252.80
55016;DHT22;40919;43.236;21.590;2023-02-02T14:26:46;205.50;2252.80
55016;DHT22;40919;43.236;21.590;2023-02-02T14:31:58;205.50;2252.80
55016;DHT22;40919;43.236;21.590;2023-02-02T14:37:15;205.40;2252.80
55016;DHT22;40919;43.236;21.590;2023-02-02T14:49:05;204.90;2252.80
55016;DHT22;40919;43.236;21.590;2023-02-02T14:51:33;204.90;2252.80
55016;DHT22;40919;43.236;21.590;2023-02-02T14:54:18;204.80;2252.80
55016;DHT22;40919;43.236;21.590;2023-02-02T14:56:56;204.80;2252.80
55016;DHT22;40919;43.236;21.590;2023-02-02T14:59:29;180.10;2252.80
55016;DHT22;40919;43.236;21.590;2023-02-02T15:02:18;204.80;2252.80
55016;DHT22;40919;43.236;21.590;2023-02-02T15:04:44;180.10;2252.80
55016;DHT22;40919;43.236;21.590;2023-02-02T15:09:47;180.10;2252.80
55016;DHT22;40919;43.236;21.590;2023-02-02T15:12:15;180.10;2252.80
55016;DHT22;40919;43.236;21.590;2023-02-02T15:14:52;180.10;2252.80
55016;DHT22;40919;43.236;21.590;2023-02-02T15:17:23;204.80;2252.80
55016;DHT22;40919;43.236;21.590;2023-02-02T15:25:20;180.10;2252.80
55016;DHT22;40919;43.236;21.590;2023-02-02T15:30:46;180.10;2252.80
55016;DHT22;40919;43.236;21.590;2023-02-02T15:33:54;204.80;2252.80
55016;DHT22;40919;43.236;21.590;2023-02-02T15:36:38;204.80;2252.80
55016;DHT22;40919;43.236;21.590;2023-02-02T15:39:29;204.80;2252.80
55016;DHT22;40919;43.236;21.590;2023-02-02T15:41:57;180.10;2252.80
55016;DHT22;40919;43.236;21.590;2023-02-02T15:44:41;180.10;2252.80
55016;DHT22;40919;43.236;21.590;2023-02-02T15:47:11;180.10;2252.80
55016;DHT22;40919;43.236;21.590;2023-02-02T15:49:39;180.00;2252.80
55016;DHT22;40919;43.236;21.590;2023-02-02T15:52:31;180.00;2252.80
55016;DHT22;40919;43.236;21.590;2023-02-02T15:55:00;179.90;2252.80
55016;DHT22;40919;43.236;21.590;2023-02-02T15:57:34;179.90;2252.80
55016;DHT22;40919;43.236;21.590;2023-02-02T16:00:23;179.90;2252.80
55016;DHT22;40919;43.236;21.590;2023-02-02T16:08:05;179.80;2252.80
55016;DHT22;40919;43.236;21.590;2023-02-02T16:10:32;179.70;2252.80
55016;DHT22;40919;43.236;21.590;2023-02-02T16:12:58;179.70;2252.80
55016;DHT22;40919;43.236;21.590;2023-02-02T16:15:26;179.70;2252.80
55016;DHT22;40919;43.236;21.590;2023-02-02T16:18:00;179.70;2252.80
55016;DHT22;40919;43.236;21.590;2023-02-02T16:20:28;179.70;2252.80
55016;DHT22;40919;43.236;21.590;2023-02-02T16:22:57;179.70;2252.80
55016;DHT22;40919;43.236;21.590;2023-02-02T16:25:30;179.70;2252.80
55016;DHT22;40919;43.236;21.590;2023-02-02T16:27:57;179.80;2252.80
55016;DHT22;40919;43.236;21.590;2023-02-02T16:32:53;179.70;2252.80
55016;DHT22;40919;43.236;21.590;2023-02-02T16:35:34;179.60;2252.80
55016;DHT22;40919;43.236;21.590;2023-02-02T16:38:23;179.70;2252.80
55016;DHT22;40919;43.236;21.590;2023-02-02T16:41:10;179.60;2252.80
55016;DHT22;40919;43.236;21.590;2023-02-02T16:43:40;179.60;2252.80
55016;DHT22;40919;43.236;21.590;2023-02-02T16:46:14;179.60;2252.80
55016;DHT22;40919;43.236;21.590;2023-02-02T16:48:44;179.60;2252.80
55016;DHT22;40919;43.236;21.590;2023-02-02T16:53:48;179.60;2252.80
55016;DHT22;40919;43.236;21.590;2023-02-02T16:58:51;179.70;2252.80
55016;DHT22;40919;43.236;21.590;2023-02-02T17:01:34;179.70;2252.80
55016;DHT22;40919;43.236;21.590;2023-02-02T17:04:00;179.70;2252.80
55016;DHT22;40919;43.236;21.590;2023-02-02T17:06:32;179.70;2252.80
55016;DHT22;40919;43.236;21.590;2023-02-02T17:09:26;179.70;2252.80
55016;DHT22;40919;43.236;21.590;2023-02-02T17:12:04;179.70;2252.80
55016;DHT22;40919;43.236;21.590;2023-02-02T17:14:35;179.70;2252.80
55016;DHT22;40919;43.236;21.590;2023-02-02T17:17:03;179.70;2252.80
55016;DHT22;40919;43.236;21.590;2023-02-02T17:19:29;179.60;2252.80
55016;DHT22;40919;43.236;21.590;2023-02-02T17:21:56;179.60;2252.80
55016;DHT22;40919;43.236;21.590;2023-02-02T17:24:24;179.50;2252.80
55016;DHT22;40919;43.236;21.590;2023-02-02T17:26:49;179.50;2252.80
55016;DHT22;40919;43.236;21.590;2023-02-02T17:29:17;179.60;2252.80
55016;DHT22;40919;43.236;21.590;2023-02-02T17:31:44;179.60;2252.80
55016;DHT22;40919;43.236;21.590;2023-02-02T17:34:11;179.60;2252.80
55016;DHT22;40919;43.236;21.590;2023-02-02T17:36:43;179.90;2252.80